Time;durP1;ratioP1;P1;durP2;ratioP2;P2;SDS_P1;SDS_P2;PMS_P1;PMS_P2;Temp;Humidity;BMP_temperature;BMP_pressure;BME280_temperature;BME280_humidity;BME280_pressure;Samples;Min_cycle;Max_cycle;Signal;HPM_P1;HPM_P2
2023/07/04 00:01:04;;;;;;;8.73;2.10;;;13.30;99.90;;;;;;5031462;28;20333;-77
2023/07/04 00:03:31;;;;;;;7.67;1.60;;;13.30;99.90;;;;;;5030968;28;20288;-77
2023/07/04 00:05:57;;;;;;;12.03;2.40;;;13.30;99.90;;;;;;5032738;28;20288;-77
2023/07/04 00:08:25;;;;;;;6.33;1.50;;;13.20;99.90;;;;;;5031543;28;20296;-77
2023/07/04 00:10:52;;;;;;;6.87;1.87;;;13.20;99.90;;;;;;5032245;28;20322;-76
2023/07/04 00:13:18;;;;;;;9.70;2.10;;;13.20;99.90;;;;;;5014623;28;20807;-77
2023/07/04 00:15:50;;;;;;;6.50;1.63;;;13.30;99.90;;;;;;5031056;28;20272;-76
2023/07/04 00:18:20;;;;;;;9.17;2.07;;;13.30;99.90;;;;;;5032365;28;20435;-76
2023/07/04 00:20:54;;;;;;;5.00;1.50;;;13.30;99.90;;;;;;5014464;28;20307;-77
2023/07/04 00:23:33;;;;;;;8.32;1.50;;;13.30;99.90;;;;;;5031404;28;20780;-77
2023/07/04 00:26:00;;;;;;;8.53;1.80;;;13.30;99.90;;;;;;5031494;28;20045;-76
2023/07/04 00:28:26;;;;;;;10.07;1.90;;;13.30;99.90;;;;;;4998379;28;20514;-77
2023/07/04 00:30:54;;;;;;;8.83;2.67;;;13.30;99.90;;;;;;5030763;28;20276;-77
2023/07/04 00:33:25;;;;;;;7.53;2.03;;;13.30;99.90;;;;;;5015448;28;20776;-77
2023/07/04 00:36:03;;;;;;;10.27;1.67;;;13.20;99.90;;;;;;5032192;28;20288;-77
2023/07/04 00:38:33;;;;;;;7.07;1.80;;;13.20;99.90;;;;;;5015866;28;20276;-77
2023/07/04 00:41:06;;;;;;;10.27;1.97;;;13.20;99.90;;;;;;5032132;28;20291;-77
2023/07/04 00:43:58;;;;;;;5.90;1.50;;;13.20;99.90;;;;;;4998664;28;20287;-77
2023/07/04 00:46:54;;;;;;;6.43;1.70;;;13.20;99.90;;;;;;5031052;28;20375;-77
2023/07/04 00:49:30;;;;;;;7.03;1.77;;;13.10;99.90;;;;;;4994816;28;20319;-77
2023/07/04 00:52:08;;;;;;;6.50;1.73;;;13.10;99.90;;;;;;5014438;28;20050;-77
2023/07/04 00:54:36;;;;;;;7.43;1.83;;;13.10;99.90;;;;;;5017439;28;20295;-77
2023/07/04 00:57:06;;;;;;;4.57;1.80;;;13.10;99.90;;;;;;5035859;28;20280;-77
2023/07/04 00:59:43;;;;;;;6.00;1.63;;;13.10;99.90;;;;;;5034480;28;20629;-76
2023/07/04 01:02:11;;;;;;;7.83;1.90;;;13.10;99.90;;;;;;5035007;28;20299;-77
2023/07/04 01:04:37;;;;;;;7.37;2.23;;;13.10;99.90;;;;;;5018148;28;20332;-77
2023/07/04 01:07:19;;;;;;;4.57;1.30;;;13.10;99.90;;;;;;5034789;28;20326;-77
2023/07/04 01:09:54;;;;;;;6.63;1.63;;;13.20;99.90;;;;;;5033559;28;20311;-77
2023/07/04 01:12:20;;;;;;;7.40;1.70;;;13.20;99.90;;;;;;5034397;28;20288;-77
2023/07/04 01:14:47;;;;;;;8.77;2.00;;;13.20;99.90;;;;;;5034353;28;20691;-77
2023/07/04 01:17:14;;;;;;;6.13;2.00;;;13.20;99.90;;;;;;5018001;28;20292;-77
2023/07/04 01:19:40;;;;;;;9.00;1.83;;;13.30;99.90;;;;;;5017695;28;20319;-77
2023/07/04 01:22:23;;;;;;;6.70;1.77;;;13.30;99.90;;;;;;5018163;28;20300;-77
2023/07/04 01:25:05;;;;;;;6.20;2.30;;;13.30;99.90;;;;;;5035229;28;20295;-77
2023/07/04 01:27:31;;;;;;;6.47;1.33;;;13.20;99.90;;;;;;5034576;28;20284;-77
2023/07/04 01:30:03;;;;;;;8.03;2.10;;;13.20;99.90;;;;;;5034940;28;20304;-77
2023/07/04 01:32:29;;;;;;;5.43;1.80;;;13.20;99.90;;;;;;5002938;28;20318;-77
2023/07/04 01:34:58;;;;;;;10.30;2.17;;;13.20;99.90;;;;;;5033944;28;20371;-78
2023/07/04 01:37:27;;;;;;;7.13;2.03;;;13.20;99.90;;;;;;5035117;28;20331;-77
2023/07/04 01:39:52;;;;;;;5.37;1.70;;;13.20;99.90;;;;;;5034037;28;20620;-77
2023/07/04 01:42:18;;;;;;;6.00;1.70;;;13.20;99.90;;;;;;5018001;28;20292;-77
2023/07/04 01:44:44;;;;;;;9.07;1.73;;;13.20;99.90;;;;;;5017449;28;20059;-77
2023/07/04 01:47:10;;;;;;;5.73;1.87;;;13.20;99.90;;;;;;5017741;28;20298;-78
2023/07/04 01:49:36;;;;;;;3.97;1.40;;;13.20;99.90;;;;;;5001005;28;20524;-77
2023/07/04 01:52:01;;;;;;;5.53;1.70;;;13.30;99.90;;;;;;5016864;28;20084;-77
2023/07/04 01:54:27;;;;;;;8.57;2.23;;;13.20;99.90;;;;;;5017578;28;20390;-77
2023/07/04 01:56:53;;;;;;;6.50;1.73;;;13.20;99.90;;;;;;5017202;28;20045;-78
2023/07/04 01:59:20;;;;;;;4.37;1.70;;;13.20;99.90;;;;;;5017299;28;20049;-77
2023/07/04 02:01:46;;;;;;;5.93;1.60;;;13.20;99.90;;;;;;5016993;28;20045;-77
2023/07/04 02:04:12;;;;;;;9.03;2.23;;;13.30;99.90;;;;;;4984577;28;20291;-77
2023/07/04 02:06:37;;;;;;;6.53;2.00;;;13.20;99.90;;;;;;5033320;28;20371;-76
2023/07/04 02:09:03;;;;;;;8.30;2.27;;;13.30;99.90;;;;;;5033005;28;20047;-76
2023/07/04 02:11:29;;;;;;;7.67;2.03;;;13.30;99.90;;;;;;5000529;28;20055;-76
2023/07/04 02:13:55;;;;;;;6.63;1.90;;;13.30;99.90;;;;;;5016499;28;20099;-76
2023/07/04 02:16:21;;;;;;;7.97;2.00;;;13.30;99.90;;;;;;5034513;28;20041;-77
2023/07/04 02:18:47;;;;;;;5.90;1.70;;;13.40;99.90;;;;;;5032835;28;20286;-77
2023/07/04 02:21:13;;;;;;;6.47;2.20;;;13.40;99.90;;;;;;5016456;28;20085;-76
2023/07/04 02:23:38;;;;;;;4.77;1.60;;;13.40;99.90;;;;;;5017125;28;20139;-77
2023/07/04 02:26:04;;;;;;;5.00;1.80;;;13.40;99.90;;;;;;5033101;28;20104;-76
2023/07/04 02:28:30;;;;;;;7.93;2.07;;;13.40;99.90;;;;;;5032896;28;20098;-75
2023/07/04 02:30:57;;;;;;;5.60;1.70;;;13.40;99.90;;;;;;5033875;28;20124;-74
2023/07/04 02:33:24;;;;;;;11.97;2.40;;;13.40;99.90;;;;;;5033296;28;20049;-76
2023/07/04 02:35:50;;;;;;;4.80;1.37;;;13.40;99.90;;;;;;5016220;28;20349;-74
2023/07/04 02:38:16;;;;;;;4.27;1.20;;;13.40;99.90;;;;;;5016775;28;20292;-74
2023/07/04 02:40:44;;;;;;;5.30;1.60;;;13.40;99.90;;;;;;5032961;28;20284;-74
2023/07/04 02:43:10;;;;;;;4.97;1.70;;;13.40;99.90;;;;;;5033216;28;20292;-75
2023/07/04 02:45:36;;;;;;;4.63;1.27;;;13.40;99.90;;;;;;5016527;28;20311;-75
2023/07/04 02:48:02;;;;;;;7.33;1.70;;;13.40;99.90;;;;;;5032383;28;20045;-76
2023/07/04 02:50:28;;;;;;;3.60;1.13;;;13.30;99.90;;;;;;5033726;28;20412;-76
2023/07/04 02:52:53;;;;;;;5.73;1.30;;;13.30;99.90;;;;;;5033764;28;20049;-76
2023/07/04 02:55:19;;;;;;;6.13;1.50;;;13.20;99.90;;;;;;5033048;28;20045;-76
2023/07/04 02:57:45;;;;;;;5.10;1.40;;;13.20;99.90;;;;;;5033858;28;20041;-76
2023/07/04 03:00:11;;;;;;;6.90;1.80;;;13.20;99.90;;;;;;5032620;28;20053;-76
2023/07/04 03:02:36;;;;;;;2.93;1.30;;;13.20;99.90;;;;;;5016088;28;20046;-77
2023/07/04 03:05:02;;;;;;;6.37;1.90;;;13.10;99.90;;;;;;5031690;28;20334;-76
2023/07/04 03:07:28;;;;;;;5.17;1.27;;;13.10;99.90;;;;;;5032814;28;20053;-77
2023/07/04 03:09:54;;;;;;;3.60;1.40;;;13.00;99.90;;;;;;5015796;28;20049;-77
2023/07/04 03:12:20;;;;;;;4.07;1.40;;;13.00;99.90;;;;;;5033835;28;20050;-77
2023/07/04 03:14:45;;;;;;;7.20;2.10;;;13.00;99.90;;;;;;5016019;28;20517;-76
2023/07/04 03:17:11;;;;;;;4.03;1.47;;;13.00;99.90;;;;;;5031368;28;20049;-76
2023/07/04 03:19:37;;;;;;;4.47;1.43;;;13.00;99.90;;;;;;5031972;28;20076;-76
2023/07/04 03:22:03;;;;;;;4.80;1.80;;;13.00;99.90;;;;;;5033110;28;20049;-77
2023/07/04 03:24:30;;;;;;;4.80;1.70;;;12.90;99.90;;;;;;5032265;28;20124;-76
2023/07/04 03:26:56;;;;;;;7.40;1.90;;;12.90;99.90;;;;;;5033011;28;20049;-77
2023/07/04 03:29:22;;;;;;;5.43;1.40;;;12.90;99.90;;;;;;5033095;28;20300;-77
2023/07/04 03:31:48;;;;;;;2.90;1.30;;;13.00;99.90;;;;;;5033139;28;20383;-77
2023/07/04 03:34:13;;;;;;;6.80;1.80;;;13.00;99.90;;;;;;5032866;28;20397;-77
2023/07/04 03:36:39;;;;;;;6.70;1.70;;;13.00;99.90;;;;;;5031953;28;20071;-77
2023/07/04 03:39:05;;;;;;;4.67;1.67;;;13.00;99.90;;;;;;5031809;28;20157;-77
2023/07/04 03:41:32;;;;;;;5.57;1.37;;;13.00;99.90;;;;;;4999689;28;20397;-77
2023/07/04 03:44:00;;;;;;;6.77;1.43;;;13.00;99.90;;;;;;5031504;28;20780;-77
2023/07/04 03:46:26;;;;;;;7.33;1.50;;;13.00;99.90;;;;;;5031935;28;20350;-77
2023/07/04 03:48:51;;;;;;;5.33;1.30;;;13.00;99.90;;;;;;5014949;28;20314;-78
2023/07/04 03:51:17;;;;;;;4.60;1.63;;;13.00;99.90;;;;;;5015707;28;20859;-78
2023/07/04 03:53:43;;;;;;;3.83;1.47;;;13.10;99.90;;;;;;4999438;28;20041;-77
2023/07/04 03:56:09;;;;;;;7.10;1.77;;;13.10;99.90;;;;;;5031296;28;20045;-78
2023/07/04 03:58:34;;;;;;;5.63;1.87;;;13.10;99.90;;;;;;5031774;28;20167;-77
2023/07/04 04:01:01;;;;;;;2.60;1.20;;;13.10;99.90;;;;;;4998963;28;20048;-78
2023/07/04 04:03:27;;;;;;;5.57;1.67;;;13.10;99.90;;;;;;5015037;28;20120;-78
2023/07/04 04:05:53;;;;;;;4.33;1.60;;;13.20;99.90;;;;;;5032453;28;20288;-78
2023/07/04 04:08:19;;;;;;;4.93;1.33;;;13.20;99.90;;;;;;5031402;28;20044;-77
2023/07/04 04:10:45;;;;;;;5.00;1.33;;;13.20;99.90;;;;;;5015255;28;20296;-77
2023/07/04 04:13:11;;;;;;;3.43;1.57;;;13.30;99.90;;;;;;5032500;28;20042;-77
2023/07/04 04:15:36;;;;;;;5.83;1.53;;;13.30;99.90;;;;;;4998979;28;20396;-77
2023/07/04 04:18:02;;;;;;;7.00;2.23;;;13.30;99.90;;;;;;5014835;28;20052;-78
2023/07/04 04:20:29;;;;;;;6.90;1.40;;;13.40;99.90;;;;;;5014591;28;20049;-78
2023/07/04 04:22:54;;;;;;;2.70;1.43;;;13.40;99.90;;;;;;5031414;28;20413;-78
2023/07/04 04:25:20;;;;;;;4.70;2.10;;;13.40;99.90;;;;;;5015308;28;20292;-77
2023/07/04 04:27:46;;;;;;;3.80;1.63;;;13.40;99.90;;;;;;5033165;28;20528;-77
2023/07/04 04:30:13;;;;;;;6.03;1.27;;;13.40;99.90;;;;;;5035360;28;20042;-78
2023/07/04 04:32:39;;;;;;;5.60;1.57;;;13.50;99.90;;;;;;5036349;28;20319;-77
2023/07/04 04:35:08;;;;;;;5.27;1.57;;;13.50;99.90;;;;;;5034975;28;20288;-78
2023/07/04 04:37:34;;;;;;;4.73;1.50;;;13.60;99.90;;;;;;5019235;28;20330;-77
2023/07/04 04:40:00;;;;;;;6.77;1.97;;;13.60;99.90;;;;;;5034646;28;20312;-77
2023/07/04 04:42:31;;;;;;;4.13;1.43;;;13.70;99.90;;;;;;5002504;28;20284;-77
2023/07/04 04:44:57;;;;;;;7.10;1.77;;;13.70;99.90;;;;;;5034818;28;20308;-77
2023/07/04 04:47:24;;;;;;;4.07;1.40;;;13.80;99.90;;;;;;5018584;28;20636;-77
2023/07/04 04:50:08;;;;;;;;;;;13.80;99.90;;;;;;5036252;28;20099;-77
2023/07/04 04:52:37;;;;;;;7.37;1.70;;;13.90;99.90;;;;;;5035127;28;19925;-77
2023/07/04 04:55:03;;;;;;;6.80;1.57;;;14.00;99.90;;;;;;5018596;28;20497;-77
2023/07/04 04:57:29;;;;;;;6.77;1.53;;;14.00;99.90;;;;;;5018271;28;20292;-77
2023/07/04 04:59:59;;;;;;;4.70;1.43;;;14.10;99.90;;;;;;5002459;28;20295;-77
2023/07/04 05:02:25;;;;;;;6.40;1.73;;;14.10;99.90;;;;;;5034151;28;20292;-77
2023/07/04 05:04:51;;;;;;;7.33;1.70;;;14.10;99.90;;;;;;5018561;28;20317;-77
2023/07/04 05:07:18;;;;;;;5.20;2.00;;;14.10;99.90;;;;;;5034252;28;20363;-77
2023/07/04 05:09:44;;;;;;;7.30;1.73;;;14.20;99.90;;;;;;5018306;28;20050;-78
2023/07/04 05:12:09;;;;;;;4.63;1.70;;;14.20;99.90;;;;;;5034046;28;20284;-77
2023/07/04 05:14:35;;;;;;;8.00;1.80;;;14.30;99.90;;;;;;5018143;28;20053;-77
2023/07/04 05:17:01;;;;;;;6.90;1.70;;;14.40;99.90;;;;;;5034457;28;20061;-77
2023/07/04 05:19:27;;;;;;;8.47;1.80;;;14.40;99.90;;;;;;5035937;28;20050;-77
2023/07/04 05:21:52;;;;;;;5.93;1.70;;;14.40;99.90;;;;;;5017721;28;20049;-77
2023/07/04 05:24:18;;;;;;;6.53;1.50;;;14.50;99.90;;;;;;5034041;28;20060;-77
2023/07/04 05:26:44;;;;;;;5.03;1.57;;;14.60;99.90;;;;;;5035341;28;20092;-77
2023/07/04 05:29:09;;;;;;;6.90;1.37;;;14.70;99.90;;;;;;5033861;28;20050;-77
2023/07/04 05:31:35;;;;;;;7.80;1.83;;;14.80;99.90;;;;;;5018050;28;20528;-77
2023/07/04 05:34:01;;;;;;;8.27;1.83;;;14.90;99.90;;;;;;5034026;28;20119;-77
2023/07/04 05:36:29;;;;;;;6.00;1.73;;;15.00;99.90;;;;;;5034756;28;20041;-76
2023/07/04 05:39:01;;;;;;;7.13;1.40;;;15.10;99.90;;;;;;5034612;28;20048;-77
2023/07/04 05:41:29;;;;;;;5.73;1.43;;;15.10;99.90;;;;;;5033842;28;20288;-77
2023/07/04 05:43:56;;;;;;;8.27;1.77;;;15.20;99.90;;;;;;5033822;28;20776;-76
2023/07/04 05:46:21;;;;;;;7.60;1.60;;;15.30;99.90;;;;;;5034849;28;20671;-77
2023/07/04 05:48:47;;;;;;;6.47;1.43;;;15.40;99.90;;;;;;5035010;28;20299;-76
2023/07/04 05:51:15;;;;;;;5.57;1.40;;;15.50;99.90;;;;;;5034798;28;20041;-77
2023/07/04 05:53:45;;;;;;;5.37;1.33;;;15.60;99.90;;;;;;5034653;28;20045;-76
2023/07/04 05:56:15;;;;;;;6.40;1.80;;;15.90;99.90;;;;;;5033579;28;20299;-76
2023/07/04 05:58:43;;;;;;;4.63;1.87;;;16.30;99.90;;;;;;5017407;28;20041;-77
2023/07/04 06:01:27;;;;;;;7.30;1.73;;;16.60;99.90;;;;;;5034613;28;20045;-77
2023/07/04 06:03:54;;;;;;;6.90;1.23;;;16.60;99.90;;;;;;5033652;28;20494;-77
2023/07/04 06:06:31;;;;;;;7.13;1.50;;;16.60;99.90;;;;;;5033492;28;20071;-77
2023/07/04 06:08:58;;;;;;;7.30;1.47;;;16.60;99.90;;;;;;5017057;28;20091;-77
2023/07/04 06:11:26;;;;;;;6.77;2.03;;;16.60;99.90;;;;;;5016770;28;20061;-77
2023/07/04 06:13:53;;;;;;;6.60;1.40;;;16.70;99.90;;;;;;5033534;28;20146;-77
2023/07/04 06:16:19;;;;;;;6.37;1.50;;;16.80;99.90;;;;;;5032928;28;20132;-77
2023/07/04 06:18:46;;;;;;;5.77;1.90;;;17.00;99.90;;;;;;5016924;28;20129;-77
2023/07/04 06:21:12;;;;;;;5.30;1.10;;;17.20;99.90;;;;;;5016665;28;20401;-78
2023/07/04 06:23:38;;;;;;;6.63;2.10;;;17.20;99.90;;;;;;5033535;28;20128;-77
2023/07/04 06:26:05;;;;;;;5.47;1.70;;;17.40;99.90;;;;;;5016859;28;20206;-78
2023/07/04 06:28:32;;;;;;;6.43;1.97;;;17.80;99.90;;;;;;5016284;28;20038;-78
2023/07/04 06:30:58;;;;;;;6.80;1.40;;;18.00;99.90;;;;;;5033246;28;20053;-78
2023/07/04 06:33:24;;;;;;;6.00;1.50;;;18.10;99.90;;;;;;5032893;28;20378;-78
2023/07/04 06:35:50;;;;;;;5.23;1.20;;;18.00;99.90;;;;;;5016699;28;20045;-78
2023/07/04 06:38:15;;;;;;;5.23;1.40;;;18.00;99.90;;;;;;5032892;28;20124;-79
2023/07/04 06:40:41;;;;;;;9.20;2.33;;;17.90;99.90;;;;;;5016822;28;20057;-79
2023/07/04 06:43:07;;;;;;;4.60;1.60;;;17.80;99.90;;;;;;5032953;28;20156;-78
2023/07/04 06:45:35;;;;;;;7.70;1.40;;;17.70;99.90;;;;;;5032663;28;20042;-78
2023/07/04 06:48:01;;;;;;;3.90;1.50;;;17.70;99.90;;;;;;5032515;28;20080;-77
2023/07/04 06:50:28;;;;;;;5.10;1.30;;;18.10;99.90;;;;;;5031735;28;20037;-78
2023/07/04 06:52:54;;;;;;;4.80;1.47;;;18.40;99.90;;;;;;5016099;28;20049;-78
2023/07/04 06:55:20;;;;;;;6.03;1.50;;;18.70;99.90;;;;;;5016060;28;20052;-78
2023/07/04 06:57:46;;;;;;;5.23;1.63;;;19.90;99.90;;;;;;5032855;28;20051;-78
2023/07/04 07:00:12;;;;;;;6.10;1.77;;;21.30;99.90;;;;;;5015989;28;20049;-82
2023/07/04 07:02:38;;;;;;;5.63;1.70;;;21.90;99.90;;;;;;5016037;28;20057;-79
2023/07/04 07:05:05;;;;;;;5.30;1.70;;;21.80;99.90;;;;;;5016191;28;20164;-78
2023/07/04 07:07:31;;;;;;;5.90;1.67;;;21.30;99.90;;;;;;5032351;28;20061;-72
2023/07/04 07:09:56;;;;;;;6.60;1.63;;;20.70;99.90;;;;;;5032215;28;20037;-77
2023/07/04 07:12:22;;;;;;;6.03;1.63;;;20.70;99.90;;;;;;5032162;28;20060;-75
2023/07/04 07:14:48;;;;;;;4.80;1.90;;;20.60;99.90;;;;;;5033320;28;20092;-76
2023/07/04 07:17:13;;;;;;;5.70;1.47;;;20.70;99.90;;;;;;5032963;28;20102;-75
2023/07/04 07:19:40;;;;;;;5.50;1.50;;;21.40;99.90;;;;;;5032164;28;20053;-74
2023/07/04 07:22:06;;;;;;;7.20;1.67;;;21.60;99.90;;;;;;5033248;28;20091;-75
2023/07/04 07:24:33;;;;;;;3.17;1.13;;;21.30;99.90;;;;;;5032964;28;20063;-75
2023/07/04 07:26:59;;;;;;;4.97;1.70;;;20.90;99.90;;;;;;5033180;28;20050;-75
2023/07/04 07:29:26;;;;;;;6.70;2.27;;;20.40;99.90;;;;;;5031680;28;20056;-75
2023/07/04 07:31:52;;;;;;;5.87;1.50;;;20.10;99.90;;;;;;5033020;28;20057;-75
2023/07/04 07:34:18;;;;;;;5.90;2.30;;;19.80;99.90;;;;;;5032787;28;20050;-75
2023/07/04 07:36:45;;;;;;;5.70;1.73;;;19.70;99.90;;;;;;5033223;28;20122;-74
2023/07/04 07:39:15;;;;;;;6.33;2.57;;;19.70;99.90;;;;;;5032940;28;20512;-75
2023/07/04 07:41:46;;;;;;;5.17;1.57;;;19.80;99.90;;;;;;5031653;28;20045;-75
2023/07/04 07:44:14;;;;;;;3.80;1.43;;;19.90;99.90;;;;;;5032724;28;20041;-75
2023/07/04 07:46:40;;;;;;;5.27;1.67;;;20.10;99.90;;;;;;5032721;28;20056;-75
2023/07/04 07:49:07;;;;;;;6.57;2.00;;;20.20;99.90;;;;;;5032878;28;20473;-76
2023/07/04 07:51:33;;;;;;;6.80;1.80;;;20.10;99.90;;;;;;5032594;28;20052;-77
2023/07/04 07:54:00;;;;;;;4.27;1.50;;;20.10;99.90;;;;;;5031697;28;20060;-77
2023/07/04 07:56:31;;;;;;;6.10;1.60;;;20.20;99.90;;;;;;5032397;28;20443;-76
2023/07/04 07:58:58;;;;;;;6.60;1.73;;;20.20;99.90;;;;;;5032461;28;20080;-77
2023/07/04 08:01:28;;;;;;;4.80;1.60;;;20.20;99.90;;;;;;5014785;28;20049;-76
2023/07/04 08:03:55;;;;;;;8.50;2.77;;;20.20;99.90;;;;;;5032400;28;20516;-77
2023/07/04 08:06:26;;;;;;;6.03;1.87;;;20.30;99.90;;;;;;5032088;28;20046;-77
2023/07/04 08:08:54;;;;;;;8.73;2.33;;;20.40;99.90;;;;;;5032359;28;20049;-76
2023/07/04 08:11:20;;;;;;;7.30;2.40;;;20.50;99.90;;;;;;5032100;28;20417;-76
2023/07/04 08:13:45;;;;;;;7.90;2.37;;;20.40;99.90;;;;;;5031985;28;20576;-75
2023/07/04 08:16:15;;;;;;;10.97;2.73;;;20.40;99.90;;;;;;5032557;28;20128;-76
2023/07/04 08:18:41;;;;;;;10.30;2.93;;;20.30;99.90;;;;;;5032049;28;20037;-77
2023/07/04 08:21:06;;;;;;;7.53;2.97;;;20.30;99.90;;;;;;5030741;28;20100;-77
2023/07/04 08:23:34;;;;;;;10.30;3.60;;;20.30;99.90;;;;;;5032059;28;20050;-76
2023/07/04 08:26:00;;;;;;;9.23;2.47;;;20.10;99.90;;;;;;5031070;28;20048;-76
2023/07/04 08:28:26;;;;;;;9.07;2.67;;;20.00;99.90;;;;;;5031871;28;20128;-79
2023/07/04 08:30:52;;;;;;;7.93;2.50;;;19.80;99.90;;;;;;5031347;28;20054;-78
2023/07/04 08:33:18;;;;;;;7.23;2.50;;;19.60;99.90;;;;;;5031166;28;20053;-79
2023/07/04 08:35:57;;;;;;;11.37;2.70;;;19.60;99.90;;;;;;5031935;28;20053;-76
2023/07/04 08:38:23;;;;;;;11.37;2.63;;;19.60;99.90;;;;;;5031946;28;20080;-77
2023/07/04 08:40:50;;;;;;;7.07;2.20;;;19.90;99.90;;;;;;5032088;28;20085;-79
2023/07/04 08:43:34;;;;;;;7.30;3.00;;;20.00;99.90;;;;;;5032243;28;20509;-77
2023/07/04 08:46:04;;;;;;;10.90;3.30;;;19.80;99.90;;;;;;5031468;28;20057;-76
2023/07/04 08:48:30;;;;;;;9.73;2.30;;;19.70;99.90;;;;;;5032123;28;20542;-77
2023/07/04 08:50:58;;;;;;;8.90;2.20;;;20.10;99.90;;;;;;5031987;28;20049;-76
2023/07/04 08:53:25;;;;;;;9.27;2.83;;;20.70;99.90;;;;;;5031051;28;20056;-77
2023/07/04 08:56:20;;;;;;;10.03;2.57;;;21.30;99.90;;;;;;5031158;28;20054;-79
2023/07/04 08:59:10;;;;;;;6.07;2.28;;;21.70;99.90;;;;;;5031775;28;20102;-78
2023/07/04 09:02:02;;;;;;;9.67;2.50;;;22.00;99.90;;;;;;5031736;28;20075;-75
2023/07/04 09:04:46;;;;;;;10.13;2.83;;;22.10;99.50;;;;;;5026818;28;20520;-76
2023/07/04 09:07:26;;;;;;;8.35;2.30;;;22.10;97.60;;;;;;5032186;28;20049;-76
2023/07/04 09:10:10;;;;;;;9.13;2.60;;;21.90;95.70;;;;;;5031868;28;20443;-78
2023/07/04 09:12:38;;;;;;;5.50;1.90;;;21.50;95.50;;;;;;5030625;28;20100;-78
2023/07/04 09:15:31;;;;;;;13.50;3.10;;;21.20;95.50;;;;;;5033763;28;20049;-76
2023/07/04 09:18:30;;;;;;;5.87;2.10;;;21.10;96.60;;;;;;5022305;28;20111;-80
2023/07/04 09:21:12;;;;;;;8.60;2.20;;;21.10;96.60;;;;;;5035252;28;20053;-77
2023/07/04 09:23:38;;;;;;;8.23;2.47;;;21.10;96.10;;;;;;5033915;28;20115;-79
2023/07/04 09:26:06;;;;;;;8.30;2.40;;;21.10;96.30;;;;;;5035272;28;20041;-71
2023/07/04 09:28:34;;;;;;;9.10;2.67;;;21.10;95.70;;;;;;5034819;28;20044;-74
2023/07/04 09:31:00;;;;;;;5.93;2.10;;;21.10;96.20;;;;;;5035094;28;20046;-72
2023/07/04 09:33:30;;;;;;;10.27;3.57;;;21.00;95.30;;;;;;5035117;28;20577;-75
2023/07/04 09:35:57;;;;;;;11.97;2.93;;;21.10;95.30;;;;;;5034217;28;20092;-71
2023/07/04 09:38:23;;;;;;;6.30;2.10;;;21.10;95.60;;;;;;5035241;28;20107;-71
2023/07/04 09:40:55;;;;;;;7.50;2.07;;;21.20;96.20;;;;;;5034814;28;20509;-73
2023/07/04 09:43:32;;;;;;;9.43;2.57;;;21.30;96.30;;;;;;5033778;28;20053;-73
2023/07/04 09:46:10;;;;;;;11.47;2.77;;;21.40;96.50;;;;;;5035499;28;20049;-73
2023/07/04 09:48:36;;;;;;;6.13;1.83;;;21.40;94.90;;;;;;5034607;28;20048;-75
2023/07/04 09:51:18;;;;;;;8.87;2.00;;;21.30;93.00;;;;;;5017216;28;20053;-71
2023/07/04 09:53:44;;;;;;;7.00;1.70;;;21.30;94.40;;;;;;5034564;28;20111;-69
2023/07/04 09:56:11;;;;;;;7.87;1.90;;;21.30;92.20;;;;;;5035089;28;20049;-69
2023/07/04 09:58:37;;;;;;;9.37;2.27;;;21.20;92.20;;;;;;5034697;28;20049;-71
2023/07/04 10:01:08;;;;;;;9.27;2.20;;;21.00;91.60;;;;;;5034535;28;20054;-71
2023/07/04 10:03:35;;;;;;;6.70;2.77;;;20.90;91.70;;;;;;5034221;28;20373;-72
2023/07/04 10:06:01;;;;;;;7.03;2.03;;;20.90;93.90;;;;;;5034399;28;20049;-71
2023/07/04 10:08:27;;;;;;;7.17;2.60;;;20.90;95.10;;;;;;5034520;28;20092;-72
2023/07/04 10:10:55;;;;;;;7.90;2.30;;;20.90;95.00;;;;;;5033719;28;20080;-73
2023/07/04 10:13:33;;;;;;;9.40;2.50;;;20.90;93.70;;;;;;5033809;28;20049;-72
2023/07/04 10:15:59;;;;;;;7.83;2.40;;;20.90;93.60;;;;;;5031412;28;20053;-71
2023/07/04 10:18:27;;;;;;;9.37;2.37;;;20.80;94.30;;;;;;5033898;28;20053;-71
2023/07/04 10:20:57;;;;;;;7.87;2.30;;;20.70;94.10;;;;;;5032185;28;20136;-72
2023/07/04 10:23:24;;;;;;;9.43;2.20;;;20.60;94.90;;;;;;5031645;28;20058;-71
2023/07/04 10:25:51;;;;;;;7.20;2.20;;;20.60;95.40;;;;;;5033845;28;20485;-71
2023/07/04 10:28:19;;;;;;;10.83;4.17;;;20.60;96.10;;;;;;5034206;28;20053;-73
2023/07/04 10:31:11;;;;;;;8.13;2.37;;;20.60;96.60;;;;;;5032887;28;20492;-73
2023/07/04 10:33:55;;;;;;;7.57;2.90;;;20.60;94.90;;;;;;5033886;28;20132;-77
2023/07/04 10:36:27;;;;;;;7.00;2.15;;;20.60;94.70;;;;;;5033914;28;20041;-76
2023/07/04 10:38:58;;;;;;;8.87;2.47;;;20.70;95.30;;;;;;5033880;28;20118;-77
2023/07/04 10:41:29;;;;;;;8.50;2.10;;;20.80;95.40;;;;;;5034061;28;20068;-79
2023/07/04 10:44:09;;;;;;;8.10;2.37;;;20.90;94.90;;;;;;5033598;28;20557;-78
2023/07/04 10:46:49;;;;;;;6.70;2.13;;;20.90;94.10;;;;;;5033793;28;20049;-75
2023/07/04 10:49:20;;;;;;;8.20;2.63;;;20.80;93.30;;;;;;5033932;28;20050;-74
2023/07/04 10:51:52;;;;;;;8.70;2.67;;;20.60;93.20;;;;;;5033577;28;20516;-76
2023/07/04 10:54:19;;;;;;;9.27;2.67;;;20.60;95.30;;;;;;5034321;28;20068;-76
2023/07/04 10:56:50;;;;;;;10.97;2.40;;;20.60;96.00;;;;;;5033774;28;20053;-75
2023/07/04 10:59:26;;;;;;;9.43;2.27;;;20.50;96.20;;;;;;5033848;28;20042;-74
2023/07/04 11:01:59;;;;;;;14.20;2.80;;;20.50;97.00;;;;;;5033293;28;20049;-75
2023/07/04 11:04:34;;;;;;;7.57;2.67;;;20.50;97.50;;;;;;5033448;28;20053;-76
2023/07/04 11:07:04;;;;;;;10.45;2.15;;;20.50;96.40;;;;;;5033522;28;20037;-73
2023/07/04 11:09:40;;;;;;;7.17;2.10;;;20.40;96.50;;;;;;5033487;28;20065;-77
2023/07/04 11:12:08;;;;;;;8.47;2.40;;;20.50;96.60;;;;;;5032923;28;20060;-80
2023/07/04 11:14:40;;;;;;;9.57;2.20;;;20.50;96.80;;;;;;5015978;28;20107;-79
2023/07/04 11:17:10;;;;;;;11.03;2.23;;;20.50;96.60;;;;;;5033253;28;20509;-73
2023/07/04 11:19:53;;;;;;;8.03;2.00;;;20.60;95.60;;;;;;5033499;28;20043;-74
2023/07/04 11:22:19;;;;;;;10.57;2.57;;;20.60;94.70;;;;;;5032832;28;20497;-73
2023/07/04 11:24:46;;;;;;;11.47;2.93;;;20.60;95.70;;;;;;5032566;28;20056;-76
2023/07/04 11:27:18;;;;;;;9.67;2.40;;;20.60;95.10;;;;;;5032057;28;20076;-74
2023/07/04 11:29:52;;;;;;;7.90;1.90;;;20.50;95.60;;;;;;5031653;28;20486;-75
2023/07/04 11:32:52;;;;;;;11.23;2.53;;;20.50;96.20;;;;;;5033114;28;20497;-73
2023/07/04 11:35:23;;;;;;;12.77;2.17;;;20.40;95.60;;;;;;5031804;28;20131;-74
2023/07/04 11:38:03;;;;;;;10.87;2.30;;;20.30;95.60;;;;;;5030057;28;20083;-74
2023/07/04 11:40:32;;;;;;;9.53;2.73;;;20.20;95.90;;;;;;5031062;28;20580;-74
2023/07/04 11:43:05;;;;;;;7.73;2.20;;;20.30;95.10;;;;;;5031821;28;20055;-74
2023/07/04 11:45:32;;;;;;;8.03;2.23;;;20.30;93.00;;;;;;5031970;28;20041;-73
2023/07/04 11:48:06;;;;;;;8.80;2.30;;;20.30;92.90;;;;;;5031498;28;20448;-74
2023/07/04 11:50:43;;;;;;;8.45;2.38;;;20.30;93.90;;;;;;5032855;28;20128;-74
2023/07/04 11:53:41;;;;;;;8.10;2.30;;;20.40;92.80;;;;;;5033350;28;20037;-74
2023/07/04 11:56:35;;;;;;;9.87;2.53;;;20.40;91.20;;;;;;5001346;28;20075;-73
2023/07/04 11:59:18;;;;;;;7.53;2.30;;;20.40;91.30;;;;;;5031811;28;20072;-74
2023/07/04 12:01:55;;;;;;;9.03;2.33;;;20.40;93.10;;;;;;5031534;28;20436;-74
2023/07/04 12:04:33;;;;;;;7.60;2.37;;;20.40;93.90;;;;;;5032929;28;20157;-74
2023/07/04 12:07:10;;;;;;;8.40;2.17;;;20.50;94.40;;;;;;5032455;28;20049;-73
2023/07/04 12:09:45;;;;;;;7.37;2.33;;;20.50;92.20;;;;;;5031705;28;20050;-73
2023/07/04 12:12:28;;;;;;;6.13;2.60;;;20.50;92.80;;;;;;5032879;28;20049;-74
2023/07/04 12:15:13;;;;;;;8.23;1.90;;;20.60;93.90;;;;;;5032587;28;20045;-73
2023/07/04 12:17:41;;;;;;;8.55;2.47;;;20.70;93.00;;;;;;5032725;28;20041;-74
2023/07/04 12:20:11;;;;;;;9.43;2.40;;;20.70;92.10;;;;;;5032346;28;20042;-74
2023/07/04 12:22:44;;;;;;;7.13;1.97;;;20.70;92.30;;;;;;5032745;28;20053;-73
2023/07/04 12:25:20;;;;;;;14.40;4.13;;;20.70;92.70;;;;;;5032698;28;20405;-74
2023/07/04 12:27:46;;;;;;;12.33;3.50;;;20.80;93.50;;;;;;5032262;28;20049;-74
2023/07/04 12:30:13;;;;;;;8.43;2.63;;;20.80;88.20;;;;;;5031749;28;20052;-73
2023/07/04 12:32:39;;;;;;;11.37;2.50;;;20.80;86.30;;;;;;5032602;28;20563;-74
2023/07/04 12:35:06;;;;;;;8.23;2.30;;;20.80;83.30;;;;;;5031398;28;20496;-74
2023/07/04 12:37:39;;;;;;;10.00;2.33;;;20.80;83.80;;;;;;5032472;28;20068;-74
2023/07/04 12:40:12;;;;;;;10.80;2.17;;;20.90;84.70;;;;;;5032282;28;20128;-74
2023/07/04 12:42:39;;;;;;;15.33;2.50;;;20.80;86.10;;;;;;5032679;28;20052;-74
2023/07/04 12:45:16;;;;;;;9.97;2.33;;;20.80;89.90;;;;;;5030995;28;20131;-74
2023/07/04 12:47:44;;;;;;;7.87;2.10;;;20.80;90.60;;;;;;5032464;28;20053;-74
2023/07/04 12:50:13;;;;;;;9.67;2.30;;;20.70;90.60;;;;;;5034363;28;20068;-74
2023/07/04 12:52:39;;;;;;;9.30;2.40;;;20.70;91.60;;;;;;5035107;28;20062;-74
2023/07/04 12:55:11;;;;;;;8.60;2.20;;;20.70;91.20;;;;;;5035930;28;20049;-74
2023/07/04 12:57:38;;;;;;;8.60;2.40;;;20.70;91.10;;;;;;5036429;28;20402;-74